createdAt,value
2023-04-04T00:03:35.396Z,8.70
2023-04-04T00:08:38.224Z,7.30
2023-04-04T00:13:41.618Z,7.50
2023-04-04T00:18:44.296Z,8.70
2023-04-04T00:23:47.011Z,8.10
2023-04-04T00:28:49.700Z,10.70
2023-04-04T00:33:52.348Z,7.70
2023-04-04T00:38:55.066Z,4.30
2023-04-04T00:43:58.167Z,9.20
2023-04-04T00:49:00.893Z,6.90
2023-04-04T00:54:04.034Z,18.70
2023-04-04T00:59:07.720Z,11.80
2023-04-04T01:04:10.857Z,12.30
2023-04-04T01:09:13.693Z,10.70
2023-04-04T01:14:16.447Z,7.90
2023-04-04T01:19:32.483Z,9.20
2023-04-04T01:24:36.436Z,7.40
2023-04-04T01:29:39.094Z,6.80
2023-04-04T01:34:52.572Z,9.50
2023-04-04T01:40:12.327Z,8.80
2023-04-04T01:45:15.018Z,8.70
2023-04-04T01:50:17.756Z,5.30
2023-04-04T01:55:21.832Z,6.70
2023-04-04T02:00:24.570Z,6.00
2023-04-04T02:05:27.265Z,6.00
2023-04-04T02:10:30.571Z,6.50
2023-04-04T02:15:36.023Z,5.80
2023-04-04T02:20:39.026Z,4.60
2023-04-04T02:25:41.926Z,5.50
2023-04-04T02:30:44.688Z,6.10
2023-04-04T02:35:47.458Z,4.20
2023-04-04T02:40:50.375Z,5.60
2023-04-04T02:45:53.037Z,3.20
2023-04-04T02:50:55.837Z,8.60
2023-04-04T02:55:58.606Z,6.10
2023-04-04T03:01:01.363Z,7.60
2023-04-04T03:06:04.135Z,4.00
2023-04-04T03:11:07.321Z,7.60
2023-04-04T03:16:10.808Z,5.90
2023-04-04T03:21:13.616Z,4.00
2023-04-04T03:26:16.321Z,5.50
2023-04-04T03:31:18.989Z,4.60
2023-04-04T03:36:22.775Z,9.00
2023-04-04T03:41:25.485Z,8.50
2023-04-04T03:46:28.255Z,8.40
2023-04-04T03:51:31.714Z,9.60
2023-04-04T03:56:34.513Z,7.70
2023-04-04T04:01:37.158Z,10.80
2023-04-04T04:06:39.849Z,8.60
2023-04-04T04:11:42.589Z,7.70
2023-04-04T04:16:45.213Z,6.10
2023-04-04T04:21:48.138Z,6.50
2023-04-04T04:26:50.891Z,5.70
2023-04-04T04:31:53.705Z,10.70
2023-04-04T04:36:56.498Z,13.00
2023-04-04T04:41:59.165Z,16.90
2023-04-04T04:47:03.820Z,19.80
2023-04-04T04:52:06.769Z,15.60
2023-04-04T04:57:09.476Z,9.50
2023-04-04T05:02:12.166Z,7.60
2023-04-04T05:07:18.297Z,8.90
2023-04-04T05:12:21.489Z,4.70
2023-04-04T05:17:24.226Z,4.10
2023-04-04T05:22:28.581Z,29.60
2023-04-04T05:27:31.555Z,6.20
2023-04-04T05:32:34.403Z,9.20
2023-04-04T05:37:40.765Z,6.50
2023-04-04T05:42:53.852Z,5.50
2023-04-04T05:47:56.590Z,5.50
2023-04-04T05:52:59.322Z,5.80
2023-04-04T05:58:02.082Z,19.80
2023-04-04T06:03:04.861Z,11.90
2023-04-04T06:08:10.208Z,12.80
2023-04-04T06:13:12.893Z,5.50
2023-04-04T06:18:18.368Z,4.30
2023-04-04T06:23:24.202Z,2.70
2023-04-04T06:28:33.694Z,2.80
2023-04-04T06:33:36.819Z,4.20
2023-04-04T06:38:39.565Z,4.90
2023-04-04T06:43:42.557Z,3.60
2023-04-04T06:48:45.566Z,4.00
2023-04-04T06:53:48.325Z,4.50
2023-04-04T06:58:56.292Z,2.30
2023-04-04T07:04:00.136Z,2.00
2023-04-04T07:09:12.804Z,2.80
2023-04-04T07:14:25.760Z,3.10
2023-04-04T07:19:29.288Z,3.60
2023-04-04T07:24:36.675Z,3.00
2023-04-04T07:29:39.769Z,2.60
2023-04-04T07:34:43.743Z,2.90
2023-04-04T07:39:50.131Z,8.30
2023-04-04T07:44:55.481Z,6.60
2023-04-04T07:49:59.346Z,15.20
2023-04-04T07:55:03.526Z,11.70
2023-04-04T08:00:12.474Z,7.40
2023-04-04T08:05:15.537Z,6.60
2023-04-04T08:10:19.154Z,3.30
2023-04-04T08:15:22.100Z,5.20
2023-04-04T08:20:24.921Z,3.00
2023-04-04T08:25:27.671Z,3.50
2023-04-04T08:30:30.440Z,3.10
2023-04-04T08:35:33.166Z,3.50
2023-04-04T08:40:36.002Z,3.20
2023-04-04T08:45:41.921Z,4.90
2023-04-04T08:50:44.748Z,2.90
2023-04-04T08:55:47.776Z,4.70
2023-04-04T09:00:53.877Z,3.60
2023-04-04T09:05:57.149Z,6.40
2023-04-04T09:11:02.714Z,4.00
2023-04-04T09:16:06.160Z,17.80
2023-04-04T09:21:11.295Z,17.00
2023-04-04T09:26:14.090Z,6.50
2023-04-04T09:31:17.346Z,5.90
2023-04-04T09:36:20.726Z,3.80
2023-04-04T09:41:26.285Z,3.70
2023-04-04T09:46:30.059Z,3.80
2023-04-04T09:51:36.275Z,3.80
2023-04-04T09:56:43.337Z,4.30
2023-04-04T10:01:46.302Z,3.70
2023-04-04T10:06:49.238Z,3.30
2023-04-04T10:12:08.833Z,2.60
2023-04-04T10:17:11.599Z,4.40
2023-04-04T10:22:15.484Z,5.60
2023-04-04T10:27:18.364Z,14.60
2023-04-04T10:32:31.484Z,8.00
2023-04-04T10:37:47.600Z,8.20
2023-04-04T10:42:51.040Z,4.20
2023-04-04T10:48:00.286Z,2.50
2023-04-04T10:53:04.678Z,4.70
2023-04-04T10:58:08.941Z,4.70
2023-04-04T11:03:11.676Z,4.50
2023-04-04T11:08:20.105Z,6.00
2023-04-04T11:13:29.465Z,3.80
2023-04-04T11:18:34.286Z,7.80
2023-04-04T11:23:50.259Z,4.80
2023-04-04T11:29:08.436Z,6.10
2023-04-04T11:34:16.506Z,6.10
2023-04-04T11:39:25.664Z,4.40
2023-04-04T11:44:30.812Z,5.10
2023-04-04T11:49:39.671Z,3.70
2023-04-04T11:54:43.989Z,8.30
2023-04-04T11:59:49.293Z,3.70
2023-04-04T12:04:52.310Z,6.00
2023-04-04T12:09:57.882Z,4.80
2023-04-04T12:15:10.819Z,4.30
2023-04-04T12:20:24.149Z,5.30
2023-04-04T12:25:28.537Z,4.20
2023-04-04T12:30:32.310Z,6.70
2023-04-04T12:35:35.060Z,6.60
2023-04-04T12:40:39.456Z,8.80
2023-04-04T12:45:44.174Z,9.50
2023-04-04T12:50:54.362Z,7.10
2023-04-04T12:56:04.808Z,6.60
2023-04-04T13:01:09.405Z,5.50
2023-04-04T13:06:19.748Z,14.40
2023-04-04T13:11:23.533Z,6.00
2023-04-04T13:16:37.874Z,6.30
2023-04-04T13:21:41.052Z,5.30
2023-04-04T13:26:43.961Z,2.00
2023-04-04T13:31:46.693Z,2.00
2023-04-04T13:36:49.999Z,6.10
2023-04-04T13:41:53.169Z,6.30
2023-04-04T13:46:55.924Z,4.80
2023-04-04T13:51:58.660Z,6.20
2023-04-04T13:57:01.373Z,4.80
2023-04-04T14:02:04.413Z,3.90
2023-04-04T14:07:07.375Z,3.90
2023-04-04T14:12:10.054Z,2.00
2023-04-04T14:17:12.818Z,3.00
2023-04-04T14:22:15.542Z,3.60
2023-04-04T14:27:18.286Z,16.80
2023-04-04T14:32:21.098Z,11.40
2023-04-04T14:37:24.084Z,6.70
2023-04-04T14:42:27.204Z,5.90
2023-04-04T14:47:29.863Z,4.90
2023-04-04T14:52:32.646Z,4.90
2023-04-04T14:57:39.242Z,2.40
2023-04-04T15:02:50.880Z,3.20
2023-04-04T15:07:53.642Z,3.50
2023-04-04T15:12:56.333Z,3.50
2023-04-04T15:17:59.143Z,3.20
2023-04-04T15:23:01.879Z,2.10
2023-04-04T15:28:04.601Z,3.50
2023-04-04T15:33:07.649Z,3.20
2023-04-04T15:38:10.551Z,9.10
2023-04-04T15:43:13.274Z,5.60
2023-04-04T15:48:15.997Z,3.30
2023-04-04T15:53:18.664Z,4.40
2023-04-04T15:58:21.478Z,3.40
2023-04-04T16:03:25.781Z,3.80
2023-04-04T16:08:28.578Z,2.50
2023-04-04T16:13:31.307Z,2.10
2023-04-04T16:18:33.989Z,2.80
2023-04-04T16:23:37.012Z,5.20
2023-04-04T16:28:40.254Z,12.60
2023-04-04T16:33:43.553Z,16.80
2023-04-04T16:38:46.228Z,12.60
2023-04-04T16:43:52.587Z,8.20
2023-04-04T16:48:55.395Z,5.00
2023-04-04T16:53:58.088Z,4.70
2023-04-04T16:59:01.340Z,2.70
2023-04-04T17:04:04.311Z,4.30
2023-04-04T17:09:08.067Z,1.90
2023-04-04T17:14:10.947Z,2.10
2023-04-04T17:19:13.630Z,3.20
2023-04-04T17:24:16.350Z,2.60
2023-04-04T17:29:20.701Z,2.20
2023-04-04T17:34:24.245Z,2.50
2023-04-04T17:39:27.395Z,2.70
2023-04-04T17:44:30.165Z,4.60
2023-04-04T17:49:32.821Z,4.30
2023-04-04T17:54:36.440Z,4.10
2023-04-04T17:59:39.273Z,5.00
2023-04-04T18:04:41.984Z,3.80
2023-04-04T18:09:45.815Z,6.20
2023-04-04T18:14:48.598Z,2.90
2023-04-04T18:19:51.462Z,4.40
2023-04-04T18:24:54.112Z,3.30
2023-04-04T18:29:56.797Z,5.40
2023-04-04T18:34:59.482Z,4.10
2023-04-04T18:40:03.325Z,2.70
2023-04-04T18:45:08.176Z,5.40
2023-04-04T18:50:11.803Z,15.40
2023-04-04T18:55:14.643Z,10.30
2023-04-04T19:00:17.773Z,13.10
2023-04-04T19:05:24.398Z,9.80
2023-04-04T19:10:27.352Z,8.00
2023-04-04T19:15:30.414Z,31.20
2023-04-04T19:20:33.125Z,41.10
2023-04-04T19:25:35.831Z,33.50
2023-04-04T19:30:44.473Z,43.20
2023-04-04T19:35:54.385Z,68.70
2023-04-04T19:41:07.739Z,72.10
2023-04-04T19:46:12.658Z,34.70
2023-04-04T19:51:15.339Z,27.70
2023-04-04T19:56:21.544Z,33.10
2023-04-04T20:01:29.177Z,40.70
2023-04-04T20:06:32.078Z,26.80
2023-04-04T20:11:36.298Z,20.70
2023-04-04T20:16:39.055Z,18.90
2023-04-04T20:21:41.926Z,14.20
2023-04-04T20:26:58.196Z,15.50
2023-04-04T20:32:07.773Z,18.20
2023-04-04T20:37:13.969Z,26.00
2023-04-04T20:42:26.048Z,44.10
2023-04-04T20:47:44.042Z,54.90
2023-04-04T20:52:53.314Z,70.00
2023-04-04T20:58:19.841Z,72.00
2023-04-04T21:03:25.372Z,59.90
2023-04-04T21:08:47.460Z,43.80
2023-04-04T21:13:50.145Z,42.00
2023-04-04T21:19:01.500Z,25.10
2023-04-04T21:24:10.626Z,23.00
2023-04-04T21:29:22.721Z,25.50
2023-04-04T21:34:27.143Z,10.50
2023-04-04T21:39:30.149Z,10.00
2023-04-04T21:44:32.879Z,7.50
2023-04-04T21:49:35.556Z,7.20
2023-04-04T21:54:38.305Z,5.50
2023-04-04T21:59:41.044Z,6.60
2023-04-04T22:04:43.751Z,6.10
2023-04-04T22:09:46.498Z,7.10
2023-04-04T22:14:51.248Z,11.60
2023-04-04T22:20:00.066Z,10.20
2023-04-04T22:25:03.777Z,9.50
2023-04-04T22:30:07.341Z,9.00
2023-04-04T22:35:13.189Z,10.80
2023-04-04T22:40:16.002Z,9.10
2023-04-04T22:45:18.712Z,9.80
2023-04-04T22:50:25.561Z,4.90
2023-04-04T23:00:31.422Z,5.80
2023-04-04T23:05:34.168Z,7.00
2023-04-04T23:10:36.895Z,8.20
2023-04-04T23:15:41.452Z,5.00
2023-04-04T23:20:44.354Z,7.50
2023-04-04T23:25:47.160Z,6.70
2023-04-04T23:30:49.911Z,7.10
2023-04-04T23:35:52.618Z,6.40
2023-04-04T23:40:55.309Z,8.80
2023-04-04T23:46:00.287Z,12.00
2023-04-04T23:51:04.294Z,9.00
2023-04-04T23:56:07.338Z,10.20
